.
WxDataArchive / Data Records for 2007-05-02
2007-05-01 May 2007 2007-05-03

Data Records for Wednesday, 02 May 2007

Time	Temp	Chill	HIndex	Humid	Dewpt	 Wind 	HiWind	WindDir	Rain 	Barom 
-----	----	-----	------	-----	-----	------	------	-------	-----	----- 
00:00	54.8	54.8	54.8	90	51.9	0	0	---	0.00	29.835 
00:05	54.7	54.7	54.7	90	51.8	0	0	---	0.00	29.837 
00:10	54.4	54.4	54.4	91	51.8	0	0	---	0.00	29.839 
00:15	54.2	54.2	54.2	91	51.6	0	0	---	0.00	29.839 
00:20	54.1	54.1	54.1	91	51.5	0	0	---	0.00	29.841 
00:25	53.9	53.9	53.9	91	51.3	0	0	---	0.00	29.846 
00:30	53.8	53.8	53.8	92	51.5	0	0	---	0.00	29.845 
00:35	53.6	53.6	53.6	92	51.3	0	0	---	0.00	29.846 
00:40	53.6	53.6	53.6	92	51.3	0	0	---	0.00	29.847 
00:45	53.6	53.6	53.6	92	51.3	0	0	---	0.00	29.851 
00:50	53.5	53.5	53.5	92	51.2	0	0	---	0.00	29.852 
00:55	53.3	53.3	53.3	92	51.0	0	0	---	0.00	29.855 
01:00	53.2	53.2	53.2	92	50.9	0	0	---	0.00	29.855 
01:05	53.2	53.2	53.2	92	50.9	0	0	---	0.00	29.854 
01:10	53.1	53.1	53.1	92	50.8	0	0	---	0.00	29.855 
01:15	52.9	52.9	52.9	92	50.6	0	0	---	0.00	29.856 
01:20	52.8	52.8	52.8	92	50.5	0	0	---	0.00	29.856 
01:25	52.6	52.6	52.6	92	50.3	0	0	---	0.00	29.856 
01:30	52.5	52.5	52.5	92	50.2	0	0	---	0.00	29.856 
01:35	52.3	52.3	52.3	92	50.0	0	0	---	0.00	29.863 
01:40	52.2	52.2	52.2	92	49.9	0	0	---	0.00	29.862 
01:45	52.0	52.0	52.0	92	49.7	0	0	---	0.00	29.863 
01:50	52.0	52.0	52.0	92	49.7	0	1	68	0.00	29.858 
01:55	52.0	52.0	52.0	92	49.7	0	0	---	0.00	29.859 
02:00	51.9	51.9	51.9	92	49.6	0	0	---	0.00	29.859 
02:05	51.9	51.9	51.9	92	49.6	0	1	68	0.00	29.859 
02:10	52.0	52.0	52.0	92	49.7	0	1	68	0.00	29.859 
02:15	52.2	52.2	52.2	92	49.9	0	4	112	0.00	29.858 
02:20	52.2	52.2	52.2	91	49.7	0	0	---	0.00	29.860 
02:25	52.0	52.0	52.0	91	49.5	0	0	---	0.00	29.861 
02:30	51.9	51.9	51.9	91	49.4	0	1	112	0.00	29.864 
02:35	51.9	51.9	51.9	91	49.4	0	0	---	0.00	29.861 
02:40	51.9	51.9	51.9	91	49.4	0	0	---	0.00	29.860 
02:45	51.7	51.7	51.7	91	49.2	0	0	---	0.00	29.859 
02:50	51.6	51.6	51.6	91	49.1	0	0	---	0.00	29.859 
02:55	51.4	51.4	51.4	91	48.9	0	0	---	0.00	29.862 
03:00	51.1	51.1	51.1	91	48.6	0	0	---	0.00	29.862 
03:05	51.0	51.0	51.0	92	48.8	0	0	---	0.00	29.862 
03:10	51.0	51.0	51.0	92	48.8	0	0	---	0.00	29.869 
03:15	50.8	50.8	50.8	92	48.6	0	1	112	0.00	29.871 
03:20	50.7	50.7	50.7	92	48.5	0	0	---	0.00	29.872 
03:25	50.5	50.5	50.5	92	48.3	0	0	---	0.00	29.872 
03:30	50.4	50.4	50.4	92	48.2	0	0	---	0.00	29.871 
03:35	50.4	50.4	50.4	93	48.5	0	1	112	0.00	29.872 
03:40	50.4	50.4	50.4	93	48.5	0	1	112	0.00	29.874 
03:45	50.4	50.4	50.4	93	48.5	0	0	---	0.00	29.875 
03:50	50.4	50.4	50.4	94	48.7	0	1	112	0.00	29.877 
03:55	50.5	50.5	50.5	94	48.8	0	2	112	0.00	29.880 
04:00	50.7	50.7	50.7	94	49.0	0	1	112	0.00	29.881 
04:05	50.7	50.7	50.7	94	49.0	0	2	112	0.00	29.890 
04:10	50.8	50.8	50.8	94	49.1	0	1	112	0.00	29.896 
04:15	51.0	51.0	51.0	94	49.3	0	1	112	0.00	29.897 
04:20	51.0	51.0	51.0	94	49.3	0	1	112	0.00	29.897 
04:25	51.0	51.0	51.0	93	49.0	0	1	112	0.00	29.901 
04:30	50.8	50.8	50.8	93	48.8	0	1	112	0.00	29.906 
04:35	50.8	50.8	50.8	93	48.8	0	1	112	0.00	29.906 
04:40	50.7	50.7	50.7	93	48.7	0	2	112	0.00	29.909 
04:45	50.5	50.5	50.5	93	48.6	0	2	112	0.00	29.911 
04:50	50.4	50.4	50.4	94	48.7	0	2	112	0.00	29.912 
04:55	50.4	50.4	50.4	94	48.7	0	2	112	0.00	29.914 
05:00	50.2	50.2	50.2	94	48.5	0	2	112	0.00	29.915 
05:05	50.2	50.2	50.2	94	48.5	0	3	112	0.00	29.922 
05:10	50.1	50.1	50.1	94	48.4	1	2	112	0.00	29.920 
05:15	50.1	50.1	50.1	94	48.4	1	2	112	0.00	29.923 
05:20	49.9	49.9	49.9	94	48.2	0	2	112	0.00	29.927 
05:25	49.9	49.9	49.9	94	48.2	1	3	112	0.00	29.933 
05:30	49.9	49.9	49.9	95	48.5	1	2	112	0.00	29.934 
05:35	50.1	50.1	50.1	95	48.7	1	3	112	0.00	29.934 
05:40	50.1	50.1	50.1	95	48.7	2	4	90	0.00	29.935 
05:45	50.1	50.1	50.1	95	48.7	1	4	90	0.00	29.935 
05:50	50.2	50.2	50.2	96	49.1	1	3	112	0.00	29.936 
05:55	50.2	50.2	50.2	96	49.1	1	4	112	0.00	29.938 
06:00	50.4	50.4	50.4	96	49.3	1	3	112	0.00	29.940 
06:05	50.4	50.4	50.4	96	49.3	1	4	112	0.00	29.942 
06:10	50.4	50.4	50.4	96	49.3	2	6	68	0.00	29.943 
06:15	50.4	50.4	50.4	96	49.3	1	3	68	0.00	29.944 
06:20	50.5	50.5	50.5	96	49.4	1	5	68	0.00	29.947 
06:25	50.5	50.5	50.5	96	49.4	1	3	112	0.00	29.950 
06:30	50.7	50.7	50.7	96	49.6	2	4	112	0.00	29.952 
06:35	50.7	50.7	50.7	96	49.6	2	4	90	0.00	29.952 
06:40	50.8	50.8	50.8	97	50.0	2	3	90	0.00	29.950 
06:45	50.8	50.8	50.8	96	49.7	3	6	90	0.00	29.950 
06:50	51.0	51.0	51.0	97	50.2	2	4	112	0.00	29.950 
06:55	51.0	51.0	51.0	97	50.2	2	5	112	0.00	29.951 
07:00	51.0	51.0	51.0	97	50.2	2	5	90	0.00	29.952 
07:05	51.1	51.1	51.1	97	50.3	2	5	112	0.00	29.953 
07:10	51.1	51.1	51.1	96	50.0	3	6	90	0.00	29.957 
07:15	51.0	51.0	51.0	96	49.9	2	6	112	0.00	29.958 
07:20	51.3	51.3	51.3	96	50.2	1	4	90	0.00	29.961 
07:25	51.6	51.6	51.6	97	50.8	1	3	90	0.00	29.964 
07:30	51.7	51.7	51.7	96	50.6	1	3	112	0.00	29.965 
07:35	51.9	51.9	51.9	96	50.8	1	3	112	0.00	29.966 
07:40	52.0	52.0	52.0	96	50.9	2	6	90	0.00	29.969 
07:45	52.2	52.2	52.2	96	51.1	3	5	90	0.00	29.974 
07:50	52.2	52.2	52.2	96	51.1	3	7	90	0.00	29.977 
07:55	52.2	52.2	52.2	96	51.1	2	5	90	0.00	29.979 
08:00	52.3	52.3	52.3	96	51.2	2	5	112	0.00	29.980 
08:05	52.3	52.3	52.3	95	50.9	2	4	90	0.00	29.982 
08:10	52.3	52.3	52.3	95	50.9	3	6	90	0.00	29.983 
08:15	52.5	52.5	52.5	95	51.1	2	5	112	0.00	29.982 
08:20	52.6	52.6	52.6	95	51.2	4	10	112	0.00	29.985 
08:25	52.6	52.6	52.6	95	51.2	3	6	112	0.00	29.988 
08:30	52.6	52.6	52.6	94	50.9	3	7	90	0.00	29.992 
08:35	52.8	52.8	52.8	94	51.1	3	9	68	0.00	29.994 
08:40	52.8	52.8	52.8	94	51.1	2	6	112	0.00	29.994 
08:45	52.8	52.8	52.8	94	51.1	2	5	45	0.00	29.996 
08:50	52.9	52.9	52.9	94	51.2	2	5	90	0.00	29.998 
08:55	53.1	53.1	53.1	93	51.1	3	9	90	0.00	29.997 
09:00	53.1	53.1	53.1	92	50.8	2	5	68	0.00	29.998 
09:05	53.2	53.2	53.2	92	50.9	2	5	90	0.00	30.004 
09:10	53.2	53.2	53.2	92	50.9	3	9	112	0.00	30.004 
09:15	53.3	53.3	53.3	92	51.0	2	7	112	0.00	30.004 
09:20	53.3	53.3	53.3	92	51.0	2	4	112	0.00	30.008 
09:25	53.5	53.5	53.5	92	51.2	2	5	112	0.00	30.011 
09:30	53.5	53.5	53.5	92	51.2	3	6	112	0.00	30.013 
09:35	53.5	53.5	53.5	92	51.2	2	6	90	0.00	30.013 
09:40	53.6	53.6	53.6	92	51.3	1	6	112	0.00	30.014 
09:45	53.8	53.8	53.8	91	51.2	2	4	90	0.00	30.014 
09:50	53.9	53.9	53.9	89	50.7	2	7	135	0.00	30.015 
09:55	54.1	54.1	54.1	89	50.9	3	7	112	0.00	30.016 
10:00	54.1	54.1	54.1	90	51.2	3	9	90	0.00	30.016 
10:05	54.2	54.2	54.2	90	51.3	2	6	112	0.00	30.019 
10:10	54.4	54.4	54.4	90	51.5	2	5	22	0.00	30.020 
10:15	54.7	54.7	54.7	90	51.8	2	6	68	0.00	30.021 
10:20	55.1	55.1	55.1	88	51.6	2	7	90	0.00	30.020 
10:25	55.7	55.7	55.7	87	51.9	2	6	45	0.00	30.019 
10:30	56.2	56.2	56.2	87	52.4	1	4	90	0.00	30.018 
10:35	56.6	56.6	56.6	85	52.1	1	4	68	0.00	30.023 
10:40	57.2	57.2	57.2	84	52.4	2	6	112	0.00	30.028 
10:45	57.6	57.6	57.6	82	52.1	2	6	90	0.00	30.027 
10:50	58.0	58.0	58.0	81	52.2	1	6	45	0.00	30.028 
10:55	57.8	57.8	57.8	80	51.7	3	8	90	0.00	30.028 
11:00	58.1	58.1	58.1	80	52.0	2	5	90	0.00	30.028 
11:05	58.4	58.4	58.4	80	52.3	2	5	112	0.00	30.030 
11:10	58.7	58.7	58.7	79	52.2	2	5	68	0.00	30.030 
11:15	58.9	58.9	58.9	78	52.0	1	4	68	0.00	30.030 
11:20	59.0	59.0	59.0	78	52.1	2	4	68	0.00	30.033 
11:25	59.3	59.3	59.3	77	52.1	1	4	112	0.00	30.031 
11:30	59.6	59.6	59.6	76	52.0	2	6	112	0.00	30.032 
11:35	59.6	59.6	59.6	76	52.0	2	5	22	0.00	30.032 
11:40	59.8	59.8	59.8	75	51.9	2	6	112	0.00	30.034 
11:45	60.1	60.1	60.1	76	52.5	2	5	90	0.00	30.033 
11:50	60.5	60.5	60.5	77	53.2	1	4	90	0.00	30.029 
11:55	61.2	61.2	61.2	75	53.2	1	3	112	0.00	30.028 
12:00	61.3	61.3	61.3	73	52.6	3	6	112	0.00	30.028 
12:05	61.8	61.8	61.8	72	52.7	3	6	112	0.00	30.030 
12:10	62.0	62.0	62.0	74	53.6	2	5	112	0.00	30.030 
12:15	61.8	61.8	61.8	70	51.9	2	8	112	0.00	30.030 
12:20	61.3	61.3	61.3	73	52.6	2	5	112	0.00	30.030 
12:25	61.2	61.2	61.2	72	52.1	1	5	68	0.00	30.029 
12:30	61.0	61.0	61.0	74	52.6	2	5	112	0.00	30.030 
12:35	61.2	61.2	61.2	74	52.8	3	5	112	0.00	30.030 
12:40	61.2	61.2	61.2	73	52.5	2	5	45	0.00	30.030 
12:45	61.0	61.0	61.0	72	51.9	2	5	90	0.00	30.030 
12:50	60.9	60.9	60.9	73	52.2	2	5	112	0.00	30.031 
12:55	61.2	61.2	61.2	74	52.8	2	5	90	0.00	30.031 
13:00	61.6	61.6	61.6	72	52.5	2	5	90	0.00	30.030 
13:05	61.6	61.6	61.6	71	52.1	2	5	90	0.00	30.029 
13:10	61.6	61.6	61.6	72	52.5	2	4	68	0.00	30.029 
13:15	61.5	61.5	61.5	72	52.4	2	5	90	0.00	30.026 
13:20	61.8	61.8	61.8	73	53.0	4	11	90	0.00	30.028 
13:25	62.3	62.3	62.3	72	53.2	2	5	90	0.00	30.028 
13:30	62.6	62.6	62.6	73	53.8	2	7	90	0.00	30.028 
13:35	62.7	62.7	62.7	71	53.2	3	8	112	0.00	30.029 
13:40	62.6	62.6	62.6	70	52.7	2	7	112	0.00	30.029 
13:45	62.4	62.4	62.4	70	52.5	4	9	112	0.00	30.029 
13:50	62.6	62.6	62.6	71	53.1	4	9	112	0.00	30.028 
13:55	62.9	62.9	62.9	68	52.2	3	7	90	0.00	30.026 
14:00	63.7	63.7	63.7	69	53.3	3	10	90	0.00	30.025 
14:05	63.9	63.9	63.9	69	53.5	3	7	90	0.00	30.027 
14:10	64.3	64.3	64.3	69	53.9	2	5	90	0.00	30.028 
14:15	64.8	64.8	64.8	65	52.8	4	10	112	0.00	30.026 
14:20	64.2	64.2	64.2	66	52.6	5	11	112	0.00	30.029 
14:25	64.3	64.3	64.3	69	53.9	3	7	112	0.00	30.029 
14:30	64.5	64.5	64.5	64	52.0	4	10	112	0.00	30.027 
14:35	64.7	64.7	64.7	65	52.7	4	10	90	0.00	30.026 
14:40	65.0	65.0	65.0	65	52.9	2	7	90	0.00	30.022 
14:45	64.7	64.7	64.7	63	51.8	4	7	112	0.00	30.024 
14:50	63.9	63.9	63.9	67	52.7	4	10	90	0.00	30.027 
14:55	64.3	64.3	64.3	65	52.3	4	7	112	0.00	30.026 
15:00	64.7	64.7	64.7	66	53.1	4	9	90	0.00	30.025 
15:05	65.0	65.0	65.0	66	53.4	3	9	112	0.00	30.022 
15:10	65.0	65.0	65.0	65	52.9	4	7	112	0.00	30.022 
15:15	64.8	64.8	64.8	66	53.2	3	6	112	0.00	30.017 
15:20	64.5	64.5	64.5	64	52.0	4	8	112	0.00	30.017 
15:25	64.3	64.3	64.3	65	52.3	4	10	90	0.00	30.019 
15:30	64.5	64.5	64.5	64	52.0	3	6	90	0.00	30.016 
15:35	64.7	64.7	64.7	62	51.4	3	5	112	0.00	30.017 
15:40	64.5	64.5	64.5	66	52.9	3	7	112	0.00	30.016 
15:45	64.7	64.7	64.7	62	51.4	3	7	90	0.00	30.017 
15:50	65.0	65.0	65.0	63	52.1	2	5	112	0.00	30.016 
15:55	65.5	65.5	65.5	61	51.7	2	6	90	0.00	30.015 
16:00	65.8	65.8	65.8	58	50.6	4	9	112	0.00	30.014 
16:05	66.1	66.1	66.1	59	51.3	2	7	90	0.00	30.014 
16:10	66.1	66.1	66.1	60	51.8	2	7	112	0.00	30.015 
16:15	65.8	65.8	65.8	59	51.1	3	6	112	0.00	30.016 
16:20	65.3	65.3	65.3	57	49.7	3	9	90	0.00	30.017 
16:25	65.0	65.0	65.0	58	49.9	2	9	112	0.00	30.018 
16:30	64.8	64.8	64.8	58	49.7	2	5	90	0.00	30.017 
16:35	64.7	64.7	64.7	57	49.1	3	10	90	0.00	30.016 
16:40	64.5	64.5	64.5	59	49.8	3	5	90	0.00	30.018 
16:45	64.3	64.3	64.3	57	48.7	3	7	90	0.00	30.016 
16:50	64.5	64.5	64.5	56	48.4	2	4	90	0.00	30.018 
16:55	64.5	64.5	64.5	54	47.5	2	5	112	0.00	30.021 
17:00	64.7	64.7	64.7	54	47.7	2	6	112	0.00	30.018 
17:05	64.7	64.7	64.7	55	48.2	1	5	112	0.00	30.019 
17:10	64.7	64.7	64.7	56	48.6	2	4	112	0.00	30.019 
17:15	64.5	64.5	64.5	55	48.0	3	6	112	0.00	30.016 
17:20	64.3	64.3	64.3	55	47.8	2	7	90	0.00	30.016 
17:25	64.2	64.2	64.2	54	47.2	3	7	90	0.00	30.016 
17:30	64.2	64.2	64.2	56	48.2	2	7	90	0.00	30.015 
17:35	64.2	64.2	64.2	55	47.7	2	6	45	0.00	30.016 
17:40	64.3	64.3	64.3	56	48.3	2	4	90	0.00	30.016 
17:45	64.3	64.3	64.3	56	48.3	1	5	90	0.00	30.015 
17:50	64.3	64.3	64.3	57	48.7	1	3	90	0.00	30.016 
17:55	64.2	64.2	64.2	53	46.7	2	6	68	0.00	30.017 
18:00	64.0	64.0	64.0	55	47.5	1	3	68	0.00	30.017 
18:05	63.9	63.9	63.9	56	47.9	2	4	112	0.00	30.018 
18:10	63.5	63.5	63.5	55	47.0	1	5	112	0.00	30.019 
18:15	63.4	63.4	63.4	57	47.9	2	4	112	0.00	30.020 
18:20	63.2	63.2	63.2	55	46.8	2	3	90	0.00	30.022 
18:25	63.2	63.2	63.2	57	47.7	1	3	90	0.00	30.021 
18:30	63.1	63.1	63.1	61	49.4	1	3	112	0.00	30.026 
18:35	62.9	62.9	62.9	59	48.3	2	4	112	0.00	30.028 
18:40	62.7	62.7	62.7	60	48.6	1	3	90	0.00	30.030 
18:45	62.6	62.6	62.6	59	48.1	1	3	90	0.00	30.031 
18:50	62.4	62.4	62.4	59	47.9	1	2	90	0.00	30.034 
18:55	62.3	62.3	62.3	60	48.2	0	1	90	0.00	30.036 
19:00	62.0	62.0	62.0	59	47.5	1	3	90	0.00	30.035 
19:05	61.8	61.8	61.8	60	47.8	1	2	90	0.00	30.034 
19:10	61.6	61.6	61.6	62	48.4	1	2	90	0.00	30.036 
19:15	61.3	61.3	61.3	64	49.0	1	2	90	0.00	30.038 
19:20	61.0	61.0	61.0	64	48.7	0	2	90	0.00	30.040 
19:25	60.7	60.7	60.7	65	48.9	0	1	90	0.00	30.044 
19:30	60.5	60.5	60.5	66	49.1	0	1	90	0.00	30.045 
19:35	60.2	60.2	60.2	66	48.8	0	0	---	0.00	30.045 
19:40	59.8	59.8	59.8	67	48.8	0	0	---	0.00	30.044 
19:45	59.3	59.3	59.3	68	48.7	0	0	---	0.00	30.046 
19:50	58.9	58.9	58.9	69	48.7	0	0	---	0.00	30.049 
19:55	58.4	58.4	58.4	72	49.4	1	5	90	0.00	30.051 
20:00	58.9	58.9	58.9	70	49.1	4	9	90	0.00	30.051 
20:05	59.2	59.2	59.2	71	49.8	3	5	90	0.00	30.055 
20:10	59.2	59.2	59.2	72	50.2	2	4	90	0.00	30.058 
20:15	59.0	59.0	59.0	73	50.4	2	4	90	0.00	30.060 
20:20	58.7	58.7	58.7	73	50.1	4	7	90	0.00	30.064 
20:25	58.3	58.3	58.3	73	49.7	4	9	112	0.00	30.066 
20:30	58.0	58.0	58.0	72	49.0	4	7	112	0.00	30.068 
20:35	57.5	57.5	57.5	72	48.5	3	7	90	0.00	30.071 
20:40	57.3	57.3	57.3	72	48.3	4	10	112	0.00	30.077 
20:45	57.0	57.0	57.0	73	48.4	3	7	112	0.00	30.079 
20:50	56.7	56.7	56.7	72	47.8	3	7	112	0.00	30.081 
20:55	56.6	56.6	56.6	71	47.3	3	9	112	0.00	30.083 
21:00	56.3	56.3	56.3	70	46.6	3	6	90	0.00	30.085 
21:05	56.2	56.2	56.2	69	46.2	3	10	112	0.00	30.086 
21:10	56.0	56.0	56.0	69	46.0	3	6	90	0.00	30.087 
21:15	55.9	55.9	55.9	68	45.5	4	7	90	0.00	30.088 
21:20	55.9	55.9	55.9	68	45.5	3	6	90	0.00	30.088 
21:25	55.7	55.7	55.7	69	45.7	3	6	112	0.00	30.087 
21:30	55.4	55.4	55.4	69	45.4	3	7	90	0.00	30.091 
21:35	55.1	55.1	55.1	69	45.1	3	5	90	0.00	30.095 
21:40	55.0	55.0	55.0	70	45.4	3	6	112	0.00	30.097 
21:45	54.8	54.8	54.8	69	44.8	3	7	90	0.00	30.098 
21:50	54.8	54.8	54.8	69	44.8	3	9	112	0.00	30.098 
21:55	54.7	54.7	54.7	69	44.7	2	6	112	0.00	30.099 
22:00	54.5	54.5	54.5	69	44.5	3	5	112	0.00	30.100 
22:05	54.4	54.4	54.4	70	44.8	3	6	112	0.00	30.096 
22:10	54.2	54.2	54.2	70	44.6	3	6	112	0.00	30.097 
22:15	54.1	54.1	54.1	71	44.9	2	4	112	0.00	30.098 
22:20	53.8	53.8	53.8	71	44.6	3	5	90	0.00	30.099 
22:25	53.6	53.6	53.6	71	44.4	2	6	112	0.00	30.100 
22:30	53.5	53.5	53.5	71	44.3	2	4	90	0.00	30.099 
22:35	53.3	53.3	53.3	71	44.1	2	6	112	0.00	30.100 
22:40	53.3	53.3	53.3	72	44.5	2	5	90	0.00	30.100 
22:45	53.1	53.1	53.1	73	44.7	1	4	90	0.00	30.100 
22:50	52.8	52.8	52.8	73	44.4	2	4	112	0.00	30.102 
22:55	52.8	52.8	52.8	73	44.4	2	6	90	0.00	30.102 
23:00	52.5	52.5	52.5	73	44.1	1	3	90	0.00	30.102 
23:05	52.3	52.3	52.3	73	43.9	1	3	90	0.00	30.099 
23:10	52.2	52.2	52.2	73	43.8	1	4	90	0.00	30.099 
23:15	52.0	52.0	52.0	73	43.6	1	3	90	0.00	30.099 
23:20	52.0	52.0	52.0	73	43.6	2	3	135	0.00	30.099 
23:25	51.9	51.9	51.9	73	43.5	1	3	112	0.00	30.099 
23:30	51.7	51.7	51.7	73	43.3	1	3	112	0.00	30.104 
23:35	51.6	51.6	51.6	73	43.2	1	2	112	0.00	30.104 
23:40	51.3	51.3	51.3	74	43.3	1	2	112	0.00	30.105 
23:45	51.1	51.1	51.1	75	43.5	1	3	90	0.00	30.108 
23:50	51.0	51.0	51.0	76	43.7	0	1	90	0.00	30.108 
23:55	50.7	50.7	50.7	77	43.8	0	1	90	0.00	30.109 

CoCoRaHS
IN-AL-39
A2 Web Hosting
Creative Commons License
GoDaddy
Look for:

loaded 2017-10-18 07:40:08 • last modified 2010-11-18 10:43:29
Privacy PolicyDisclaimer
• wx.awcolley.com is powered by PmWiki v.2002016 •
• all content (unless otherwise noted) © 2017 A W Colley